Time;durP1;ratioP1;P1;durP2;ratioP2;P2;SDS_P1;SDS_P2;PMS_P1;PMS_P2;Temp;Humidity;BMP_temperature;BMP_pressure;BME280_temperature;BME280_humidity;BME280_pressure;Samples;Min_cycle;Max_cycle;Signal;HPM_P1;HPM_P2
2022/06/26 00:02:14;;;;;;;3.20;1.73;;;;;18.60;93980.00;;;;7388305;19;20137;-76
2022/06/26 00:04:48;;;;;;;1.75;1.42;;;;;18.50;93986.00;;;;7393210;19;20127;-75
2022/06/26 00:07:16;;;;;;;2.33;1.60;;;;;18.40;93995.00;;;;7397421;19;20149;-75
2022/06/26 00:09:44;;;;;;;2.28;1.70;;;;;18.30;93990.00;;;;7398829;19;20129;-74
2022/06/26 00:12:18;;;;;;;2.75;1.60;;;;;18.10;93992.00;;;;7396645;19;20155;-77
2022/06/26 00:14:46;;;;;;;3.22;1.70;;;;;18.20;94001.00;;;;7402429;19;20129;-75
2022/06/26 00:17:14;;;;;;;1.67;1.58;;;;;18.10;94012.00;;;;7395018;19;20140;-75
2022/06/26 00:19:55;;;;;;;1.60;1.50;;;;;18.10;94016.00;;;;7396876;19;20132;-75
2022/06/26 00:22:22;;;;;;;4.28;1.67;;;;;17.90;94033.00;;;;7398809;19;20148;-75
2022/06/26 00:24:57;;;;;;;1.75;1.63;;;;;17.80;94036.00;;;;7396605;19;20136;-74
2022/06/26 00:27:24;;;;;;;3.75;1.70;;;;;17.70;94030.00;;;;7395208;19;20129;-75
2022/06/26 00:29:52;;;;;;;2.15;1.67;;;;;17.70;94029.00;;;;7391152;19;20234;-76
2022/06/26 00:32:26;;;;;;;1.65;1.40;;;;;17.50;94037.00;;;;7395600;19;20156;-76
2022/06/26 00:34:54;;;;;;;1.42;1.30;;;;;17.40;94035.00;;;;7398133;19;20286;-76
2022/06/26 00:37:21;;;;;;;2.83;1.95;;;;;17.50;94022.00;;;;7395607;19;20129;-75
2022/06/26 00:39:55;;;;;;;1.52;1.42;;;;;17.40;94022.00;;;;7396353;19;20116;-75
2022/06/26 00:42:23;;;;;;;1.58;1.30;;;;;17.30;94013.00;;;;7395484;19;20137;-74
2022/06/26 00:44:52;;;;;;;1.23;1.13;;;;;17.30;94012.00;;;;7396478;19;20137;-76
2022/06/26 00:47:26;;;;;;;1.30;1.20;;;;;17.20;94005.00;;;;7394745;19;20162;-75
2022/06/26 00:49:54;;;;;;;2.72;1.40;;;;;17.20;93991.00;;;;7395472;19;20483;-75
2022/06/26 00:52:22;;;;;;;2.10;1.33;;;;;17.40;93989.00;;;;7397419;19;20164;-76
2022/06/26 00:54:56;;;;;;;3.10;1.35;;;;;17.30;93971.00;;;;7399544;19;20129;-75
2022/06/26 00:57:24;;;;;;;1.63;1.20;;;;;17.10;93942.00;;;;7396769;19;20125;-75
2022/06/26 00:59:51;;;;;;;1.60;1.10;;;;;17.20;93963.00;;;;7396517;19;20128;-76
2022/06/26 01:02:25;;;;;;;2.95;1.30;;;;;17.10;93986.00;;;;7396692;19;20627;-77
2022/06/26 01:04:53;;;;;;;1.52;1.23;;;;;17.00;94010.00;;;;7395816;19;20551;-79
2022/06/26 01:07:20;;;;;;;2.10;1.30;;;;;17.10;94015.00;;;;7397444;19;20140;-78
2022/06/26 01:09:54;;;;;;;1.85;1.30;;;;;17.00;94005.00;;;;7400098;19;20153;-78
2022/06/26 01:12:22;;;;;;;1.92;1.17;;;;;16.90;94004.00;;;;7396030;19;20517;-80
2022/06/26 01:14:51;;;;;;;1.23;1.13;;;;;16.90;94006.00;;;;7395153;19;20497;-79
2022/06/26 01:17:32;;;;;;;1.23;1.10;;;;;16.80;94003.00;;;;7393408;19;20204;-78
2022/06/26 01:20:04;;;;;;;2.00;1.00;;;;;16.60;94010.00;;;;7397258;19;20618;-80
2022/06/26 01:22:38;;;;;;;1.60;1.30;;;;;16.60;94007.00;;;;7394395;19;20144;-78
2022/06/26 01:25:06;;;;;;;1.80;1.42;;;;;16.60;94013.00;;;;7394837;19;20134;-78
2022/06/26 01:27:42;;;;;;;1.73;1.35;;;;;16.50;94009.00;;;;7394758;19;20655;-79
2022/06/26 01:30:16;;;;;;;1.30;1.20;;;;;16.50;94005.00;;;;7392872;19;20163;-80
2022/06/26 01:32:44;;;;;;;1.20;1.10;;;;;16.50;94012.00;;;;7395123;19;20617;-78
2022/06/26 01:35:11;;;;;;;3.15;1.20;;;;;16.40;94012.00;;;;7395141;19;20606;-78
2022/06/26 01:37:45;;;;;;;1.00;1.00;;;;;16.40;94000.00;;;;7393348;19;20594;-78
2022/06/26 01:40:13;;;;;;;1.10;1.00;;;;;16.30;93996.00;;;;7393033;19;20196;-78
2022/06/26 01:42:40;;;;;;;1.20;1.10;;;;;16.30;94001.00;;;;7390974;19;20591;-79
2022/06/26 01:45:14;;;;;;;1.48;1.10;;;;;16.40;93996.00;;;;7393463;19;20139;-77
2022/06/26 01:47:42;;;;;;;2.08;1.20;;;;;16.50;93992.00;;;;7393570;19;20125;-80
2022/06/26 01:50:10;;;;;;;2.03;1.10;;;;;16.40;93999.00;;;;7394196;19;20137;-81
2022/06/26 01:52:44;;;;;;;2.28;1.00;;;;;16.30;93991.00;;;;7393204;19;20153;-80
2022/06/26 01:55:12;;;;;;;1.48;1.00;;;;;16.30;93981.00;;;;7394253;19;20627;-79
2022/06/26 01:57:39;;;;;;;1.20;1.10;;;;;16.30;93983.00;;;;7398725;19;20710;-80
2022/06/26 02:00:14;;;;;;;1.20;1.10;;;;;16.40;93989.00;;;;7392832;19;20506;-80
2022/06/26 02:02:41;;;;;;;1.00;0.90;;;;;16.30;93982.00;;;;7393035;19;20594;-79
2022/06/26 02:05:09;;;;;;;2.40;1.00;;;;;16.50;93981.00;;;;7394539;19;20603;-81
2022/06/26 02:07:43;;;;;;;2.00;1.25;;;;;16.40;93986.00;;;;7391570;19;20148;-80
2022/06/26 02:15:55;;;;;;;1.75;1.20;;;;;16.20;93986.00;;;;7393202;19;20297;-79
2022/06/26 02:18:36;;;;;;;1.33;1.23;;;;;16.20;93980.00;;;;7389301;19;20267;-80
2022/06/26 02:21:09;;;;;;;1.40;1.27;;;;;16.20;93979.00;;;;7394188;19;20590;-80
2022/06/26 02:23:45;;;;;;;1.27;1.17;;;;;16.20;93975.00;;;;7393260;19;20167;-80
2022/06/26 02:26:13;;;;;;;1.33;1.20;;;;;16.30;93981.00;;;;7392823;19;20121;-79
2022/06/26 02:28:41;;;;;;;1.15;1.02;;;;;16.40;93983.00;;;;7387706;19;20151;-80
2022/06/26 02:31:15;;;;;;;1.38;1.00;;;;;16.30;93983.00;;;;7393208;19;20155;-81
2022/06/26 02:33:43;;;;;;;1.80;1.02;;;;;16.50;93986.00;;;;7392613;19;20196;-78
2022/06/26 02:36:11;;;;;;;0.90;0.90;;;;;16.40;93986.00;;;;7391406;19;20152;-80
2022/06/26 02:38:45;;;;;;;1.02;0.93;;;;;16.30;93976.00;;;;7391268;19;20136;-80
2022/06/26 02:41:13;;;;;;;1.30;1.20;;;;;16.30;93972.00;;;;7392160;19;20136;-79
2022/06/26 02:43:40;;;;;;;1.20;1.10;;;;;16.40;93975.00;;;;7395293;19;20163;-79
2022/06/26 02:46:14;;;;;;;2.33;1.30;;;;;16.40;93976.00;;;;7392527;19;20583;-80
2022/06/26 02:48:42;;;;;;;1.67;1.13;;;;;16.40;93986.00;;;;7390542;19;20141;-79
2022/06/26 02:51:10;;;;;;;1.40;1.15;;;;;16.40;93987.00;;;;7392403;19;20511;-80
2022/06/26 02:53:43;;;;;;;3.30;1.60;;;;;16.40;93984.00;;;;7393106;19;20180;-79
2022/06/26 02:56:11;;;;;;;1.27;1.13;;;;;16.50;93979.00;;;;7392811;19;20721;-78
2022/06/26 02:58:38;;;;;;;2.40;1.50;;;;;16.50;93973.00;;;;7397109;19;20164;-79
2022/06/26 03:01:12;;;;;;;1.45;1.35;;;;;16.60;93963.00;;;;7391360;19;20164;-78
2022/06/26 03:03:40;;;;;;;6.18;1.50;;;;;16.50;93959.00;;;;7391412;19;20165;-79
2022/06/26 03:06:07;;;;;;;1.88;1.45;;;;;16.50;93969.00;;;;7391978;19;20121;-77
2022/06/26 03:08:41;;;;;;;1.45;1.35;;;;;16.30;93975.00;;;;7394561;19;20650;-77
2022/06/26 03:11:08;;;;;;;2.15;1.40;;;;;16.10;93969.00;;;;7390297;19;20172;-77
2022/06/26 03:13:36;;;;;;;2.05;1.50;;;;;16.00;93973.00;;;;7391819;19;20140;-77
2022/06/26 03:16:10;;;;;;;5.07;1.60;;;;;16.00;93975.00;;;;7390372;19;20132;-77
2022/06/26 03:18:45;;;;;;;1.38;1.10;;;;;15.90;93982.00;;;;7388037;19;20599;-78
2022/06/26 03:21:19;;;;;;;1.35;1.15;;;;;15.90;93986.00;;;;7397612;19;20121;-78
2022/06/26 03:24:02;;;;;;;1.27;1.17;;;;;15.80;93990.00;;;;7390857;19;20137;-77
2022/06/26 03:26:44;;;;;;;1.40;1.30;;;;;15.70;94004.00;;;;7391014;19;20144;-77
2022/06/26 03:29:12;;;;;;;1.48;1.38;;;;;15.60;94009.00;;;;7389014;19;20125;-79
2022/06/26 03:31:45;;;;;;;1.45;1.13;;;;;15.60;94003.00;;;;7392643;19;20216;-77
2022/06/26 03:34:13;;;;;;;1.30;1.20;;;;;15.60;94008.00;;;;7392414;19;20630;-79
2022/06/26 03:36:40;;;;;;;1.70;1.40;;;;;15.50;94007.00;;;;7390902;19;20136;-79
2022/06/26 03:39:14;;;;;;;1.58;1.45;;;;;15.50;94007.00;;;;7387918;19;20161;-79
2022/06/26 03:41:57;;;;;;;3.10;1.40;;;;;15.30;94018.00;;;;7390492;19;20140;-78
2022/06/26 03:44:32;;;;;;;1.63;1.40;;;;;15.20;94023.00;;;;7392768;19;20163;-80
2022/06/26 03:46:59;;;;;;;1.67;1.38;;;;;15.20;94028.00;;;;7392332;19;20179;-79
2022/06/26 03:49:27;;;;;;;2.38;1.50;;;;;15.10;94030.00;;;;7389631;19;20144;-78
2022/06/26 03:52:02;;;;;;;2.17;1.40;;;;;14.90;94022.00;;;;7389590;19;20132;-79
2022/06/26 03:54:34;;;;;;;1.40;1.30;;;;;14.90;94026.00;;;;7388772;19;20131;-78
2022/06/26 03:57:01;;;;;;;1.50;1.40;;;;;15.10;94026.00;;;;7393842;19;20633;-78
2022/06/26 03:59:36;;;;;;;1.35;1.25;;;;;15.00;94030.00;;;;7390768;19;20849;-79
2022/06/26 04:02:04;;;;;;;1.45;1.35;;;;;15.00;94020.00;;;;7388505;19;20129;-79
2022/06/26 04:04:32;;;;;;;1.52;1.42;;;;;14.90;94012.00;;;;7390878;19;20483;-78
2022/06/26 04:07:06;;;;;;;1.80;1.50;;;;;14.80;94013.00;;;;7390342;19;20132;-79
2022/06/26 04:09:33;;;;;;;3.40;1.30;;;;;14.70;94012.00;;;;7389872;19;20144;-79
2022/06/26 04:12:01;;;;;;;1.50;1.40;;;;;14.60;94006.00;;;;7387590;19;20151;-78
2022/06/26 04:14:36;;;;;;;4.43;1.83;;;;;14.50;94014.00;;;;7392206;19;20156;-78
2022/06/26 04:17:17;;;;;;;1.48;1.38;;;;;14.60;93999.00;;;;7388071;19;20586;-79
2022/06/26 04:19:52;;;;;;;3.25;1.60;;;;;14.70;93996.00;;;;7389263;19;20140;-77
2022/06/26 04:22:20;;;;;;;1.92;1.75;;;;;14.70;94005.00;;;;7388623;19;20140;-77
2022/06/26 04:24:48;;;;;;;1.60;1.50;;;;;14.70;94006.00;;;;7391166;19;20597;-77
2022/06/26 04:27:21;;;;;;;1.42;1.33;;;;;14.70;94018.00;;;;7385477;19;20151;-79
2022/06/26 04:29:49;;;;;;;1.98;1.50;;;;;14.70;94016.00;;;;7389236;19;20160;-80
2022/06/26 04:32:17;;;;;;;2.30;1.60;;;;;14.80;94004.00;;;;7388258;19;20141;-78
2022/06/26 04:34:50;;;;;;;1.70;1.60;;;;;14.80;94018.00;;;;7388588;19;20161;-79
2022/06/26 04:37:18;;;;;;;2.22;1.60;;;;;14.90;94010.00;;;;7391655;19;20647;-78
2022/06/26 04:39:45;;;;;;;1.67;1.58;;;;;15.10;94014.00;;;;7390785;19;20155;-78
2022/06/26 04:42:19;;;;;;;1.80;1.70;;;;;15.30;94011.00;;;;7379883;19;20156;-78
2022/06/26 04:44:47;;;;;;;2.28;1.70;;;;;15.50;94002.00;;;;7389326;19;20152;-78
2022/06/26 04:47:14;;;;;;;1.95;1.60;;;;;15.70;94001.00;;;;7397205;19;20136;-80
2022/06/26 04:49:49;;;;;;;3.22;1.50;;;;;15.90;94006.00;;;;7394033;19;20152;-79
2022/06/26 04:52:16;;;;;;;2.60;1.60;;;;;16.10;94011.00;;;;7401793;19;20155;-79
2022/06/26 04:54:45;;;;;;;1.48;1.30;;;;;16.20;94011.00;;;;7405218;19;20129;-79
2022/06/26 04:57:18;;;;;;;1.60;1.50;;;;;16.40;94014.00;;;;7402654;19;20538;-80
2022/06/26 04:59:46;;;;;;;1.50;1.40;;;;;16.50;94015.00;;;;7400567;19;20482;-79
2022/06/26 05:02:14;;;;;;;2.47;1.50;;;;;16.60;94011.00;;;;7404728;19;20165;-78
2022/06/26 05:04:49;;;;;;;1.55;1.45;;;;;16.80;94022.00;;;;7404430;19;20148;-79
2022/06/26 05:07:17;;;;;;;4.72;1.45;;;;;16.90;94016.00;;;;7403688;19;20163;-78
2022/06/26 05:09:45;;;;;;;2.25;1.38;;;;;17.10;94021.00;;;;7400134;19;20149;-79
2022/06/26 05:12:19;;;;;;;1.70;1.30;;;;;17.30;94030.00;;;;7400812;19;20212;-78
2022/06/26 05:14:47;;;;;;;1.40;1.30;;;;;17.40;94038.00;;;;7402240;19;20447;-80
2022/06/26 05:17:17;;;;;;;1.77;1.40;;;;;17.60;94044.00;;;;7401860;19;20137;-78
2022/06/26 05:19:57;;;;;;;1.42;1.30;;;;;17.70;94040.00;;;;7401625;19;20510;-78
2022/06/26 05:22:25;;;;;;;1.42;1.33;;;;;17.80;94049.00;;;;7403488;19;20493;-79
2022/06/26 05:24:59;;;;;;;3.22;1.50;;;;;18.00;94052.00;;;;7402157;19;20155;-80
2022/06/26 05:27:28;;;;;;;2.45;1.30;;;;;18.00;94045.00;;;;7398455;19;20144;-80
2022/06/26 05:29:56;;;;;;;1.90;1.55;;;;;18.10;94035.00;;;;7398863;19;20491;-79
2022/06/26 05:32:30;;;;;;;1.35;1.25;;;;;18.20;94030.00;;;;7397302;19;20151;-80
2022/06/26 05:35:00;;;;;;;2.45;1.50;;;;;18.40;94025.00;;;;7396538;19;20186;-79
2022/06/26 05:37:27;;;;;;;1.92;1.30;;;;;18.50;94022.00;;;;7396888;19;20595;-78
2022/06/26 05:40:02;;;;;;;1.33;1.23;;;;;18.70;94018.00;;;;7394456;19;20144;-80
2022/06/26 05:42:30;;;;;;;1.65;1.13;;;;;18.60;94016.00;;;;7398772;19;20485;-80
2022/06/26 05:44:58;;;;;;;1.45;1.35;;;;;18.80;94023.00;;;;7395328;19;20179;-79
2022/06/26 05:47:31;;;;;;;1.40;1.30;;;;;19.00;94020.00;;;;7400703;19;20208;-77
2022/06/26 05:50:00;;;;;;;1.42;1.33;;;;;19.20;94024.00;;;;7398651;19;20137;-79
2022/06/26 05:52:28;;;;;;;1.52;1.42;;;;;19.20;94021.00;;;;7395627;19;20171;-79
2022/06/26 05:55:03;;;;;;;4.10;1.50;;;;;19.20;94019.00;;;;7401337;19;20628;-80
2022/06/26 05:57:31;;;;;;;2.72;1.40;;;;;19.30;94015.00;;;;7400550;19;20145;-79
2022/06/26 05:59:59;;;;;;;2.00;1.42;;;;;19.30;94021.00;;;;7397453;19;20133;-80
2022/06/26 06:02:34;;;;;;;1.50;1.40;;;;;19.30;94024.00;;;;7398194;19;20506;-80
2022/06/26 06:05:02;;;;;;;2.33;1.50;;;;;19.50;94021.00;;;;7403160;19;20203;-79
2022/06/26 06:07:29;;;;;;;1.60;1.23;;;;;19.70;94024.00;;;;7401220;19;20148;-80
2022/06/26 06:10:06;;;;;;;1.60;1.38;;;;;19.70;94024.00;;;;7400736;19;20147;-81
2022/06/26 06:12:35;;;;;;;1.90;1.50;;;;;19.80;94040.00;;;;7400515;19;20160;-80
2022/06/26 06:15:03;;;;;;;2.95;1.25;;;;;19.90;94040.00;;;;7401195;19;20481;-80
2022/06/26 06:17:44;;;;;;;1.63;1.30;;;;;19.90;94039.00;;;;7396166;19;20160;-80
2022/06/26 06:20:24;;;;;;;1.27;1.17;;;;;20.10;94029.00;;;;7398585;19;20140;-79
2022/06/26 06:23:06;;;;;;;2.10;1.60;;;;;20.20;94022.00;;;;7399962;19;20460;-79
2022/06/26 06:25:34;;;;;;;1.40;1.30;;;;;20.30;94033.00;;;;7400689;19;20148;-80
2022/06/26 06:28:12;;;;;;;1.88;1.33;;;;;20.60;94049.00;;;;7399697;19;20140;-80
2022/06/26 06:30:43;;;;;;;1.90;1.30;;;;;20.60;94058.00;;;;7403170;19;20208;-80
2022/06/26 06:33:18;;;;;;;1.27;1.17;;;;;20.90;94059.00;;;;7403113;19;20575;-79
2022/06/26 06:35:48;;;;;;;1.40;1.30;;;;;21.00;94053.00;;;;7397921;19;20141;-80
2022/06/26 06:38:16;;;;;;;1.95;1.23;;;;;21.20;94054.00;;;;7398378;19;20196;-81
2022/06/26 06:40:51;;;;;;;1.45;1.10;;;;;21.40;94055.00;;;;7401590;19;20174;-80
2022/06/26 06:43:19;;;;;;;2.67;1.00;;;;;21.60;94059.00;;;;7400703;19;20133;-80
2022/06/26 06:45:47;;;;;;;1.20;1.10;;;;;21.70;94050.00;;;;7399176;19;20135;-80
2022/06/26 06:48:24;;;;;;;1.20;1.10;;;;;21.60;94054.00;;;;7399252;19;20749;-81
2022/06/26 06:50:53;;;;;;;1.48;1.00;;;;;21.70;94050.00;;;;7398374;19;20478;-80
2022/06/26 06:53:28;;;;;;;1.42;1.17;;;;;21.70;94053.00;;;;7393453;19;20165;-80
2022/06/26 06:55:58;;;;;;;1.08;0.98;;;;;21.60;94067.00;;;;7393397;19;20151;-79
2022/06/26 06:58:25;;;;;;;0.93;0.93;;;;;21.80;94060.00;;;;7392728;19;20136;-80
2022/06/26 07:01:02;;;;;;;2.80;1.17;;;;;22.00;94070.00;;;;7395781;19;20132;-80
2022/06/26 07:03:29;;;;;;;1.40;1.10;;;;;22.10;94064.00;;;;7394560;19;20128;-80
2022/06/26 07:05:57;;;;;;;1.45;1.35;;;;;22.10;94063.00;;;;7392174;19;20133;-80
2022/06/26 07:08:30;;;;;;;1.23;1.17;;;;;22.00;94071.00;;;;7393321;19;20583;-80
2022/06/26 07:10:58;;;;;;;1.25;1.15;;;;;21.90;94077.00;;;;7393987;19;20575;-80
2022/06/26 07:13:26;;;;;;;1.30;1.20;;;;;21.40;94072.00;;;;7394069;19;20219;-81
2022/06/26 07:16:02;;;;;;;1.63;1.30;;;;;21.40;94071.00;;;;7391468;19;20132;-80
2022/06/26 07:18:37;;;;;;;2.13;1.60;;;;;22.10;94069.00;;;;7392010;19;20620;-78
2022/06/26 07:21:18;;;;;;;1.65;1.27;;;;;22.10;94062.00;;;;7395112;19;20236;-79
2022/06/26 07:23:47;;;;;;;1.60;1.50;;;;;22.40;94066.00;;;;7391885;19;20463;-79
2022/06/26 07:26:22;;;;;;;2.25;1.50;;;;;22.60;94070.00;;;;7390426;19;20598;-80
2022/06/26 07:28:50;;;;;;;1.63;1.40;;;;;22.70;94073.00;;;;7390998;19;20615;-79
2022/06/26 07:31:17;;;;;;;1.58;1.40;;;;;22.60;94070.00;;;;7395035;19;20156;-81
2022/06/26 07:36:46;;;;;;;3.47;1.35;;;;;22.40;94078.00;;;;7394151;19;20149;-80
2022/06/26 07:39:21;;;;;;;2.25;1.40;;;;;22.60;94067.00;;;;7392500;19;20160;-80
2022/06/26 07:41:50;;;;;;;2.25;1.60;;;;;22.80;94071.00;;;;7390813;19;20133;-78
2022/06/26 07:44:18;;;;;;;3.90;1.45;;;;;22.80;94078.00;;;;7389541;19;20157;-80
2022/06/26 07:46:51;;;;;;;1.30;1.20;;;;;22.70;94080.00;;;;7393147;19;20647;-80
2022/06/26 07:49:19;;;;;;;1.30;1.20;;;;;22.80;94080.00;;;;7391854;19;20634;-79
2022/06/26 07:51:47;;;;;;;2.53;1.50;;;;;23.20;94077.00;;;;7391233;19;20221;-79
2022/06/26 07:54:21;;;;;;;1.50;1.40;;;;;23.20;94062.00;;;;7387653;19;20646;-78
2022/06/26 07:56:50;;;;;;;1.60;1.50;;;;;23.30;94071.00;;;;7391915;19;20152;-81
2022/06/26 07:59:17;;;;;;;1.30;1.20;;;;;23.50;94064.00;;;;7393405;19;20150;-79
2022/06/26 08:01:51;;;;;;;3.10;1.35;;;;;23.60;94067.00;;;;7391082;19;20145;-79
2022/06/26 08:04:19;;;;;;;5.03;1.30;;;;;23.80;94072.00;;;;7389252;19;20148;-80
2022/06/26 08:06:49;;;;;;;1.35;1.20;;;;;23.90;94062.00;;;;7390246;19;20634;-81
2022/06/26 08:09:23;;;;;;;1.88;1.30;;;;;23.70;94072.00;;;;7390744;19;20494;-78
2022/06/26 08:11:50;;;;;;;3.00;1.25;;;;;23.80;94071.00;;;;7389865;19;20175;-80
2022/06/26 08:14:18;;;;;;;1.52;1.42;;;;;23.70;94071.00;;;;7391297;19;20595;-80
2022/06/26 08:16:52;;;;;;;1.33;1.20;;;;;23.50;94075.00;;;;7388063;19;20159;-80
2022/06/26 08:19:25;;;;;;;1.55;1.13;;;;;23.80;94083.00;;;;7391218;19;20728;-79
2022/06/26 08:22:03;;;;;;;2.92;1.30;;;;;23.40;94075.00;;;;7392253;19;20613;-78
2022/06/26 08:24:32;;;;;;;1.40;1.30;;;;;23.60;94081.00;;;;7390724;19;20892;-79
2022/06/26 08:27:07;;;;;;;1.73;1.30;;;;;23.90;94079.00;;;;7391304;19;20597;-81
2022/06/26 08:29:36;;;;;;;1.65;1.10;;;;;24.00;94069.00;;;;7393431;19;20144;-79
2022/06/26 08:32:04;;;;;;;1.60;1.33;;;;;24.20;94079.00;;;;7391010;19;20131;-78
2022/06/26 08:34:39;;;;;;;1.27;1.17;;;;;24.30;94078.00;;;;7398755;19;20146;-79
2022/06/26 08:37:06;;;;;;;1.38;1.27;;;;;24.60;94065.00;;;;7396672;19;20133;-80
2022/06/26 08:39:35;;;;;;;1.38;1.27;;;;;24.70;94060.00;;;;7397486;19;20614;-80
2022/06/26 08:42:11;;;;;;;1.40;1.30;;;;;25.00;94067.00;;;;7397085;19;20204;-80
2022/06/26 08:44:45;;;;;;;1.67;1.25;;;;;25.30;94069.00;;;;7398711;19;20149;-78
2022/06/26 08:47:23;;;;;;;1.88;1.30;;;;;25.40;94062.00;;;;7400122;19;20749;-78
2022/06/26 08:49:53;;;;;;;1.52;1.10;;;;;25.70;94079.00;;;;7398695;19;20132;-78
2022/06/26 08:52:30;;;;;;;2.22;1.38;;;;;25.40;94084.00;;;;7396691;19;20152;-79
2022/06/26 08:54:58;;;;;;;1.58;1.30;;;;;24.90;94096.00;;;;7397457;19;20733;-80
2022/06/26 08:57:26;;;;;;;2.55;1.33;;;;;24.60;94093.00;;;;7399548;19;20140;-79
2022/06/26 09:00:00;;;;;;;4.10;1.58;;;;;24.80;94098.00;;;;7398062;19;20156;-79
2022/06/26 09:02:28;;;;;;;1.23;1.13;;;;;25.20;94095.00;;;;7394776;19;20141;-80
2022/06/26 09:04:57;;;;;;;2.83;1.20;;;;;24.80;94107.00;;;;7398034;19;20148;-80
2022/06/26 09:07:31;;;;;;;1.35;1.25;;;;;24.70;94105.00;;;;7399635;19;20167;-79
2022/06/26 09:10:09;;;;;;;1.10;1.10;;;;;24.70;94103.00;;;;7396617;19;20133;-80
2022/06/26 09:12:58;;;;;;;1.42;1.30;;;;;24.70;94102.00;;;;7400044;19;20133;-79
2022/06/26 09:15:30;;;;;;;1.73;1.20;;;;;24.70;94099.00;;;;7398488;19;20128;-80
2022/06/26 09:18:17;;;;;;;1.45;1.20;;;;;24.60;94098.00;;;;7394682;19;20652;-80
2022/06/26 09:20:56;;;;;;;1.80;1.30;;;;;24.50;94107.00;;;;7392990;19;20478;-81
2022/06/26 09:23:31;;;;;;;1.42;1.20;;;;;23.90;94114.00;;;;7399842;19;20160;-80
2022/06/26 09:26:02;;;;;;;1.63;1.30;;;;;24.10;94110.00;;;;7394858;19;20488;-79
2022/06/26 09:28:30;;;;;;;1.27;1.17;;;;;23.70;94106.00;;;;7393506;19;20153;-79
2022/06/26 09:31:06;;;;;;;1.48;1.38;;;;;23.60;94113.00;;;;7398478;19;20143;-80
2022/06/26 09:33:39;;;;;;;1.85;1.50;;;;;23.70;94108.00;;;;7395941;19;20135;-80
2022/06/26 09:36:18;;;;;;;2.45;1.33;;;;;23.70;94106.00;;;;7396786;19;20163;-79
2022/06/26 09:38:49;;;;;;;1.27;1.10;;;;;23.60;94097.00;;;;7395409;19;20132;-79
2022/06/26 09:41:35;;;;;;;1.90;1.45;;;;;24.10;94102.00;;;;7396100;19;20526;-79
2022/06/26 09:44:02;;;;;;;1.35;1.25;;;;;24.90;94105.00;;;;7395871;19;20160;-79
2022/06/26 09:46:36;;;;;;;1.40;1.30;;;;;25.60;94111.00;;;;7388705;19;20172;-80
2022/06/26 09:49:04;;;;;;;2.03;1.48;;;;;25.50;94122.00;;;;7393449;19;20702;-78
2022/06/26 09:51:31;;;;;;;2.30;1.40;;;;;25.40;94113.00;;;;7395563;19;20587;-77
2022/06/26 09:54:10;;;;;;;1.40;1.30;;;;;25.10;94123.00;;;;7392990;19;20504;-78
2022/06/26 09:56:38;;;;;;;1.40;1.30;;;;;25.10;94119.00;;;;7387365;19;20158;-77
2022/06/26 09:59:16;;;;;;;1.42;1.33;;;;;24.60;94119.00;;;;7396037;19;20563;-77
2022/06/26 10:07:35;;;;;;;1.60;1.50;;;;;23.80;94114.00;;;;7398723;19;20785;-77
2022/06/26 10:10:09;;;;;;;1.48;1.17;;;;;23.70;94130.00;;;;7394249;19;20189;-75
2022/06/26 10:12:38;;;;;;;2.10;1.40;;;;;23.50;94128.00;;;;7398078;19;20591;-76
2022/06/26 10:15:07;;;;;;;1.40;1.30;;;;;23.60;94123.00;;;;7396494;19;20129;-78
2022/06/26 10:18:25;;;;;;;1.40;1.30;;;;;23.40;94123.00;;;;7392593;19;20933;-78
2022/06/26 10:21:08;;;;;;;1.75;1.55;;;;;23.40;94136.00;;;;7391649;19;20571;-76
2022/06/26 10:23:45;;;;;;;1.30;1.15;;;;;23.00;94142.00;;;;7395171;19;20149;-79
2022/06/26 10:26:15;;;;;;;2.10;1.40;;;;;22.70;94135.00;;;;7392147;19;20141;-77
2022/06/26 10:28:59;;;;;;;1.50;1.40;;;;;22.50;94137.00;;;;7392343;19;20619;-77
2022/06/26 10:31:49;;;;;;;1.90;1.60;;;;;22.50;94129.00;;;;7398262;19;20124;-78
2022/06/26 10:34:21;;;;;;;1.50;1.25;;;;;22.30;94136.00;;;;7396574;19;20133;-80
2022/06/26 10:37:06;;;;;;;1.70;1.52;;;;;22.30;94131.00;;;;7396310;19;20597;-77
2022/06/26 10:39:38;;;;;;;1.48;1.38;;;;;22.30;94128.00;;;;7393354;19;20149;-77
2022/06/26 10:45:11;;;;;;;1.30;1.20;;;;;22.50;94132.00;;;;7393732;19;20513;-77
2022/06/26 10:47:55;;;;;;;1.63;1.23;;;;;22.80;94134.00;;;;7395720;19;20144;-78
2022/06/26 10:50:39;;;;;;;1.50;1.40;;;;;22.80;94131.00;;;;7395534;19;20132;-77
2022/06/26 10:53:23;;;;;;;1.83;1.42;;;;;22.90;94140.00;;;;7394436;19;20171;-79
2022/06/26 10:56:09;;;;;;;4.57;1.58;;;;;22.90;94128.00;;;;7393753;19;20161;-77
2022/06/26 10:58:46;;;;;;;1.38;1.27;;;;;23.00;94126.00;;;;7394038;19;20165;-78
2022/06/26 11:01:14;;;;;;;1.92;1.20;;;;;23.30;94126.00;;;;7393618;19;20149;-77
2022/06/26 11:03:43;;;;;;;1.80;1.40;;;;;23.20;94124.00;;;;7393629;19;20239;-77
2022/06/26 11:06:19;;;;;;;1.40;1.30;;;;;22.90;94120.00;;;;7393220;19;20170;-77
2022/06/26 11:08:48;;;;;;;3.15;1.45;;;;;23.00;94121.00;;;;7393989;19;20184;-77
2022/06/26 11:11:19;;;;;;;1.55;1.30;;;;;23.20;94118.00;;;;7393564;19;20484;-76
2022/06/26 11:13:57;;;;;;;1.80;1.30;;;;;23.30;94114.00;;;;7392683;19;20553;-77
2022/06/26 11:16:34;;;;;;;1.67;1.35;;;;;23.60;94111.00;;;;7393211;19;20618;-78
2022/06/26 11:19:29;;;;;;;1.45;1.35;;;;;24.50;94099.00;;;;7392681;19;20176;-76
2022/06/26 11:22:11;;;;;;;1.50;1.40;;;;;25.00;94097.00;;;;7393294;19;20132;-78
2022/06/26 11:24:51;;;;;;;3.67;2.60;;;;;25.40;94090.00;;;;7395108;19;20132;-78
2022/06/26 11:27:28;;;;;;;1.58;1.48;;;;;25.70;94092.00;;;;7390523;19;20152;-77
2022/06/26 11:30:03;;;;;;;1.83;1.58;;;;;25.70;94090.00;;;;7392386;19;20129;-78
2022/06/26 11:32:31;;;;;;;1.83;1.70;;;;;25.50;94103.00;;;;7393026;19;20634;-78
2022/06/26 11:34:59;;;;;;;2.20;2.03;;;;;25.30;94098.00;;;;7393563;19;20133;-77
2022/06/26 11:37:35;;;;;;;4.40;1.75;;;;;25.30;94102.00;;;;7394012;19;20503;-78
2022/06/26 11:40:14;;;;;;;1.98;1.50;;;;;25.30;94095.00;;;;7391846;19;20137;-77
2022/06/26 11:42:55;;;;;;;2.88;1.70;;;;;25.20;94100.00;;;;7395021;19;20128;-78
2022/06/26 11:45:32;;;;;;;3.50;1.80;;;;;25.20;94092.00;;;;7393001;19;20117;-79
2022/06/26 11:48:17;;;;;;;2.28;1.40;;;;;25.10;94096.00;;;;7390776;19;20595;-77
2022/06/26 11:50:52;;;;;;;1.40;1.30;;;;;25.20;94098.00;;;;7392597;19;20133;-78
2022/06/26 11:53:29;;;;;;;4.00;1.88;;;;;25.70;94098.00;;;;7392571;19;20132;-78
2022/06/26 11:56:04;;;;;;;4.55;2.60;;;;;26.20;94081.00;;;;7392103;19;20152;-77
2022/06/26 11:58:47;;;;;;;2.70;1.45;;;;;26.20;94096.00;;;;7390116;19;20129;-78
2022/06/26 12:01:15;;;;;;;2.83;1.58;;;;;26.20;94094.00;;;;7392814;19;20156;-77
2022/06/26 12:03:51;;;;;;;2.15;1.50;;;;;26.50;94092.00;;;;7398430;19;20132;-78
2022/06/26 12:06:29;;;;;;;3.80;1.50;;;;;26.10;94103.00;;;;7398963;19;20661;-78
2022/06/26 12:09:21;;;;;;;2.25;1.67;;;;;25.50;94112.00;;;;7401940;19;20599;-77
2022/06/26 12:11:51;;;;;;;2.20;1.98;;;;;25.60;94097.00;;;;7395246;19;20195;-77
2022/06/26 12:14:27;;;;;;;2.90;2.60;;;;;26.00;94087.00;;;;7397266;19;20162;-77
2022/06/26 12:17:05;;;;;;;2.92;1.90;;;;;26.80;94094.00;;;;7398000;19;20149;-77
2022/06/26 12:19:46;;;;;;;1.83;1.63;;;;;26.90;94088.00;;;;7396713;19;20200;-78
2022/06/26 12:22:13;;;;;;;2.45;1.92;;;;;27.50;94082.00;;;;7397797;19;20132;-76
2022/06/26 12:24:51;;;;;;;2.28;1.35;;;;;26.80;94090.00;;;;7397071;19;20148;-77
2022/06/26 12:27:19;;;;;;;1.92;1.83;;;;;26.40;94093.00;;;;7395825;19;20235;-77
2022/06/26 12:29:47;;;;;;;1.98;1.75;;;;;26.00;94090.00;;;;7398441;19;20153;-77
2022/06/26 12:32:22;;;;;;;2.45;2.00;;;;;25.40;94103.00;;;;7399753;19;20666;-77
2022/06/26 12:34:49;;;;;;;1.63;1.50;;;;;25.30;94092.00;;;;7397207;19;20607;-78
2022/06/26 12:37:17;;;;;;;1.83;1.73;;;;;25.70;94086.00;;;;7400420;19;20141;-77
2022/06/26 12:39:51;;;;;;;1.80;1.50;;;;;26.50;94083.00;;;;7397387;19;20607;-79
2022/06/26 12:42:18;;;;;;;2.67;1.67;;;;;26.90;94094.00;;;;7396307;19;20633;-78
2022/06/26 12:44:46;;;;;;;1.80;1.70;;;;;25.70;94108.00;;;;7398852;19;20125;-77
2022/06/26 12:47:19;;;;;;;1.65;1.55;;;;;25.50;94103.00;;;;7401289;19;20136;-77
2022/06/26 12:49:47;;;;;;;1.73;1.63;;;;;25.60;94079.00;;;;7391974;19;20619;-78
2022/06/26 12:52:20;;;;;;;3.20;1.77;;;;;26.50;94076.00;;;;7392791;19;20667;-80
2022/06/26 12:54:55;;;;;;;1.95;1.60;;;;;27.40;94072.00;;;;7394159;19;20521;-77
2022/06/26 12:57:22;;;;;;;1.80;1.70;;;;;27.50;94077.00;;;;7394752;19;20148;-78
2022/06/26 12:59:50;;;;;;;2.00;1.60;;;;;27.20;94071.00;;;;7388497;19;20224;-78
2022/06/26 13:02:26;;;;;;;2.10;1.70;;;;;27.40;94072.00;;;;7391396;19;21682;-78